createdAt,value
2023-09-07T00:03:09.966Z,101881.03
2023-09-07T00:07:11.951Z,101868.47
2023-09-07T00:11:13.840Z,101865.53
2023-09-07T00:15:15.716Z,101866.81
2023-09-07T00:19:17.566Z,101868.91
2023-09-07T00:23:21.129Z,101867.03
2023-09-07T00:27:23.094Z,101873.06
2023-09-07T00:31:25.180Z,101870.16
2023-09-07T00:35:27.319Z,101870.16
2023-09-07T00:39:29.340Z,101862.44
2023-09-07T00:43:31.286Z,101860.16
2023-09-07T00:47:36.435Z,101862.88
2023-09-07T00:51:38.517Z,101853.44
2023-09-07T00:55:40.714Z,101855.31
2023-09-07T00:59:42.633Z,101856.78
2023-09-07T01:03:45.510Z,101845.94
2023-09-07T01:07:54.501Z,101856.38
2023-09-07T01:11:56.599Z,101851.34
2023-09-07T01:15:58.665Z,101842.97
2023-09-07T01:20:12.369Z,101845.50
2023-09-07T01:24:16.545Z,101851.69
2023-09-07T01:28:18.923Z,101845.03
2023-09-07T01:32:20.858Z,101842.09
2023-09-07T01:36:22.736Z,101848.97
2023-09-07T01:40:24.661Z,101846.06
2023-09-07T01:44:28.164Z,101843.75
2023-09-07T01:48:30.603Z,101840.78
2023-09-07T01:52:32.728Z,101843.50
2023-09-07T01:56:34.699Z,101839.13
2023-09-07T02:00:42.589Z,101836.41
2023-09-07T02:04:47.342Z,101836.63
2023-09-07T02:08:49.851Z,101836.81
2023-09-07T02:12:51.831Z,101847.88
2023-09-07T02:16:53.847Z,101847.06
2023-09-07T02:20:55.894Z,101842.88
2023-09-07T02:24:57.737Z,101841.59
2023-09-07T02:28:59.647Z,101837.81
2023-09-07T02:33:01.555Z,101828.84
2023-09-07T02:37:04.720Z,101843.22
2023-09-07T02:41:07.177Z,101839.63
2023-09-07T02:45:12.335Z,101844.84
2023-09-07T02:49:14.697Z,101843.97
2023-09-07T02:53:16.796Z,101843.72
2023-09-07T02:57:18.734Z,101843.25
2023-09-07T03:01:22.859Z,101843.44
2023-09-07T03:05:29.242Z,101840.69
2023-09-07T03:09:31.533Z,101844.63
2023-09-07T03:13:34.075Z,101841.31
2023-09-07T03:17:36.053Z,101838.38
2023-09-07T03:21:38.663Z,101842.50
2023-09-07T03:25:40.884Z,101841.88
2023-09-07T03:29:43.064Z,101842.91
2023-09-07T03:33:45.229Z,101837.69
2023-09-07T03:37:48.643Z,101834.91
2023-09-07T03:41:50.532Z,101832.81
2023-09-07T03:45:52.777Z,101838.19
2023-09-07T03:49:54.847Z,101829.44
2023-09-07T03:53:56.794Z,101831.47
2023-09-07T03:57:58.743Z,101833.19
2023-09-07T04:02:00.925Z,101835.88
2023-09-07T04:06:03.074Z,101830.66
2023-09-07T04:10:06.497Z,101836.00
2023-09-07T04:14:08.368Z,101835.78
2023-09-07T04:18:10.461Z,101845.53
2023-09-07T04:22:12.878Z,101835.69
2023-09-07T04:26:14.883Z,101839.16
2023-09-07T04:30:17.174Z,101837.88
2023-09-07T04:34:19.259Z,101846.41
2023-09-07T04:38:21.200Z,101846.94
2023-09-07T04:42:23.299Z,101845.66
2023-09-07T04:46:25.271Z,101850.44
2023-09-07T04:50:28.141Z,101846.44
2023-09-07T04:54:30.008Z,101838.69
2023-09-07T04:58:32.336Z,101848.91
2023-09-07T05:02:39.860Z,101850.09
2023-09-07T05:06:44.756Z,101862.16
2023-09-07T05:10:47.308Z,101867.75
2023-09-07T05:14:49.215Z,101862.34
2023-09-07T05:18:51.228Z,101872.13
2023-09-07T05:22:54.590Z,101877.53
2023-09-07T05:26:56.609Z,101867.38
2023-09-07T05:30:58.607Z,101877.38
2023-09-07T05:35:00.677Z,101875.50
2023-09-07T05:39:04.203Z,101882.56
2023-09-07T05:43:07.234Z,101886.56
2023-09-07T05:47:09.864Z,101869.13
2023-09-07T05:51:11.853Z,101868.53
2023-09-07T05:55:13.730Z,101879.59
2023-09-07T05:59:15.667Z,101881.56
2023-09-07T06:03:18.018Z,101885.81
2023-09-07T06:07:20.783Z,101883.00
2023-09-07T06:11:22.775Z,101892.63
2023-09-07T06:15:25.151Z,101889.78
2023-09-07T06:19:27.154Z,101904.03
2023-09-07T06:23:29.070Z,101901.81
2023-09-07T06:27:31.181Z,101909.59
2023-09-07T06:31:33.224Z,101905.69
2023-09-07T06:35:35.444Z,101917.41
2023-09-07T06:39:37.447Z,101921.84
2023-09-07T06:43:39.615Z,101914.00
2023-09-07T06:47:43.261Z,101917.38
2023-09-07T06:51:46.661Z,101922.00
2023-09-07T06:55:48.568Z,101902.00
2023-09-07T06:59:50.589Z,101909.53
2023-09-07T07:03:52.774Z,101916.47
2023-09-07T07:07:55.438Z,101919.44
2023-09-07T07:11:57.804Z,101908.41
2023-09-07T07:15:59.772Z,101907.59
2023-09-07T07:20:01.779Z,101908.88
2023-09-07T07:24:08.054Z,101917.66
2023-09-07T07:28:11.052Z,101912.06
2023-09-07T07:32:13.632Z,101912.31
2023-09-07T07:36:15.729Z,101917.56
2023-09-07T07:40:21.730Z,101906.09
2023-09-07T07:44:23.997Z,101914.25
2023-09-07T07:48:26.394Z,101897.75
2023-09-07T07:52:28.967Z,101901.31
2023-09-07T07:56:33.381Z,101899.00
2023-09-07T08:00:37.104Z,101898.41
2023-09-07T08:04:39.566Z,101896.06
2023-09-07T08:08:42.084Z,101898.34
2023-09-07T08:12:45.715Z,101893.50
2023-09-07T08:20:49.783Z,101898.47
2023-09-07T08:24:52.542Z,101889.19
2023-09-07T08:28:54.911Z,101886.66
2023-09-07T08:32:57.007Z,101879.69
2023-09-07T08:37:00.501Z,101880.06
2023-09-07T08:41:06.969Z,101882.75
2023-09-07T08:45:10.303Z,101882.25
2023-09-07T08:49:12.927Z,101881.56
2023-09-07T08:53:14.830Z,101877.72
2023-09-07T08:57:20.275Z,101868.25
2023-09-07T09:01:23.069Z,101875.72
2023-09-07T09:05:26.790Z,101876.97
2023-09-07T09:09:28.717Z,101866.16
2023-09-07T09:13:36.291Z,101862.25
2023-09-07T09:17:39.766Z,101864.31
2023-09-07T09:21:41.790Z,101860.69
2023-09-07T09:25:43.697Z,101858.09
2023-09-07T09:29:46.094Z,101856.84
2023-09-07T09:33:54.471Z,101859.50
2023-09-07T09:37:57.590Z,101854.41
2023-09-07T09:42:00.563Z,101849.50
2023-09-07T09:46:06.852Z,101859.72
2023-09-07T09:50:12.634Z,101859.06
2023-09-07T09:54:15.185Z,101866.56
2023-09-07T09:58:17.968Z,101861.03
2023-09-07T10:02:19.932Z,101871.84
2023-09-07T10:06:31.055Z,101860.50
2023-09-07T10:10:36.452Z,101857.91
2023-09-07T10:14:42.753Z,101857.72
2023-09-07T10:18:45.827Z,101858.41
2023-09-07T10:22:47.687Z,101853.44
2023-09-07T10:26:58.245Z,101850.31
2023-09-07T10:31:02.418Z,101854.97
2023-09-07T10:35:13.961Z,101849.78
2023-09-07T10:39:17.924Z,101852.88
2023-09-07T10:43:21.627Z,101843.81
2023-09-07T10:47:23.509Z,101848.34
2023-09-07T10:51:25.590Z,101838.25
2023-09-07T10:55:29.303Z,101832.66
2023-09-07T10:59:31.353Z,101831.28
2023-09-07T11:03:33.763Z,101835.56
2023-09-07T11:07:36.237Z,101837.81
2023-09-07T11:11:38.638Z,101832.53
2023-09-07T11:15:40.727Z,101830.84
2023-09-07T11:19:42.714Z,101832.75
2023-09-07T11:23:46.396Z,101815.84
2023-09-07T11:27:48.239Z,101819.19
2023-09-07T11:31:50.423Z,101810.00
2023-09-07T11:35:57.949Z,101817.66
2023-09-07T11:39:59.769Z,101814.16
2023-09-07T11:44:01.623Z,101811.69
2023-09-07T11:48:03.760Z,101806.66
2023-09-07T11:52:06.231Z,101800.00
2023-09-07T11:56:08.194Z,101794.91
2023-09-07T12:00:13.509Z,101791.94
2023-09-07T12:04:15.486Z,101784.31
2023-09-07T12:08:17.857Z,101787.75
2023-09-07T12:12:19.702Z,101776.84
2023-09-07T12:16:22.304Z,101766.16
2023-09-07T12:20:24.649Z,101768.59
2023-09-07T12:24:26.555Z,101750.50
2023-09-07T12:28:28.533Z,101755.16
2023-09-07T12:32:30.521Z,101749.91
2023-09-07T12:36:32.540Z,101758.78
2023-09-07T12:40:36.353Z,101752.56
2023-09-07T12:44:38.434Z,101754.78
2023-09-07T12:48:40.556Z,101749.19
2023-09-07T12:52:42.811Z,101743.81
2023-09-07T12:56:45.663Z,101750.19
2023-09-07T13:00:49.542Z,101737.84
2023-09-07T13:04:51.454Z,101743.06
2023-09-07T13:08:53.323Z,101735.16
2023-09-07T13:12:55.167Z,101731.66
2023-09-07T13:16:57.043Z,101725.84
2023-09-07T13:21:02.357Z,101728.34
2023-09-07T13:25:06.255Z,101728.34
2023-09-07T13:29:08.512Z,101726.81
2023-09-07T13:33:10.406Z,101721.97
2023-09-07T13:37:12.308Z,101704.38
2023-09-07T13:41:14.202Z,101705.38
2023-09-07T13:45:16.208Z,101714.34
2023-09-07T13:49:18.095Z,101694.22
2023-09-07T13:53:19.970Z,101684.88
2023-09-07T13:57:21.972Z,101696.03
2023-09-07T14:01:26.104Z,101685.06
2023-09-07T14:05:28.016Z,101676.72
2023-09-07T14:09:29.921Z,101682.31
2023-09-07T14:13:36.064Z,101681.72
2023-09-07T14:17:38.034Z,101680.41
2023-09-07T14:21:40.144Z,101682.28
2023-09-07T14:25:46.230Z,101672.91
2023-09-07T14:29:48.161Z,101687.84
2023-09-07T14:33:50.102Z,101684.59
2023-09-07T14:37:53.902Z,101682.13
2023-09-07T14:41:55.731Z,101675.84
2023-09-07T14:45:57.735Z,101679.69
2023-09-07T14:50:00.446Z,101675.81
2023-09-07T14:54:04.903Z,101668.00
2023-09-07T14:58:10.298Z,101676.56
2023-09-07T15:02:12.417Z,101666.22
2023-09-07T15:06:17.167Z,101662.09
2023-09-07T15:10:19.020Z,101655.50
2023-09-07T15:14:20.920Z,101651.66
2023-09-07T15:18:22.928Z,101655.81
2023-09-07T15:22:24.854Z,101647.91
2023-09-07T15:26:26.905Z,101653.44
2023-09-07T15:30:29.074Z,101657.88
2023-09-07T15:34:30.961Z,101662.34
2023-09-07T15:38:33.201Z,101659.66
2023-09-07T15:42:35.210Z,101659.16
2023-09-07T15:46:38.870Z,101655.31
2023-09-07T15:50:41.028Z,101650.94
2023-09-07T15:54:42.900Z,101658.66
2023-09-07T15:58:44.960Z,101643.53
2023-09-07T16:02:47.253Z,101648.78
2023-09-07T16:06:49.361Z,101644.38
2023-09-07T16:10:55.665Z,101635.59
2023-09-07T16:14:57.554Z,101642.72
2023-09-07T16:18:59.826Z,101643.81
2023-09-07T16:23:01.663Z,101646.81
2023-09-07T16:27:03.922Z,101651.75
2023-09-07T16:31:05.879Z,101645.34
2023-09-07T16:35:08.152Z,101639.81
2023-09-07T16:39:10.121Z,101638.09
2023-09-07T16:43:12.039Z,101641.63
2023-09-07T16:47:13.874Z,101635.81
2023-09-07T16:51:15.756Z,101649.00
2023-09-07T16:55:18.309Z,101640.69
2023-09-07T17:03:24.987Z,101646.06
2023-09-07T17:07:26.980Z,101647.13
2023-09-07T17:11:29.146Z,101645.66
2023-09-07T17:15:31.044Z,101651.34
2023-09-07T17:19:32.975Z,101648.50
2023-09-07T17:23:34.953Z,101651.44
2023-09-07T17:27:36.907Z,101648.34
2023-09-07T17:31:38.801Z,101650.13
2023-09-07T17:35:40.753Z,101656.78
2023-09-07T17:39:42.618Z,101656.06
2023-09-07T17:43:46.870Z,101656.38
2023-09-07T17:47:48.920Z,101651.84
2023-09-07T17:51:51.858Z,101647.53
2023-09-07T17:55:53.723Z,101656.94
2023-09-07T17:59:55.557Z,101652.38
2023-09-07T18:03:57.588Z,101662.31
2023-09-07T18:08:00.337Z,101647.00
2023-09-07T18:12:04.206Z,101649.78
2023-09-07T18:16:06.292Z,101643.31
2023-09-07T18:20:08.877Z,101652.41
2023-09-07T18:24:10.901Z,101654.34
2023-09-07T18:28:13.522Z,101662.94
2023-09-07T18:32:15.474Z,101656.41
2023-09-07T18:36:17.368Z,101662.50
2023-09-07T18:40:19.573Z,101665.59
2023-09-07T18:44:21.440Z,101670.38
2023-09-07T18:48:23.373Z,101673.22
2023-09-07T18:52:25.206Z,101670.63
2023-09-07T18:56:27.046Z,101677.28
2023-09-07T19:00:30.326Z,101675.50
2023-09-07T19:04:34.339Z,101672.88
2023-09-07T19:08:36.334Z,101669.44
2023-09-07T19:12:38.377Z,101676.41
2023-09-07T19:16:40.469Z,101680.13
2023-09-07T19:20:42.422Z,101665.25
2023-09-07T19:24:44.396Z,101662.19
2023-09-07T19:28:47.330Z,101671.06
2023-09-07T19:32:49.317Z,101671.53
2023-09-07T19:36:51.206Z,101673.69
2023-09-07T19:40:56.537Z,101668.69
2023-09-07T19:44:58.965Z,101669.16
2023-09-07T19:49:00.955Z,101674.25
2023-09-07T19:53:02.819Z,101673.88
2023-09-07T19:57:05.024Z,101677.09
2023-09-07T20:01:20.595Z,101674.00
2023-09-07T20:05:22.468Z,101668.41
2023-09-07T20:09:25.978Z,101678.94
2023-09-07T20:13:27.962Z,101675.84
2023-09-07T20:17:29.866Z,101670.88
2023-09-07T20:21:31.735Z,101673.00
2023-09-07T20:25:33.988Z,101675.38
2023-09-07T20:29:35.856Z,101665.16
2023-09-07T20:33:37.916Z,101670.44
2023-09-07T20:37:39.763Z,101673.88
2023-09-07T20:41:41.795Z,101680.84
2023-09-07T20:45:43.813Z,101668.75
2023-09-07T20:49:46.121Z,101670.84
2023-09-07T20:53:48.016Z,101665.50
2023-09-07T20:57:51.846Z,101667.25
2023-09-07T21:01:53.701Z,101661.44
2023-09-07T21:05:55.725Z,101666.97
2023-09-07T21:09:57.684Z,101660.31
2023-09-07T21:13:59.732Z,101660.19
2023-09-07T21:18:01.891Z,101656.25
2023-09-07T21:22:04.361Z,101653.34
2023-09-07T21:26:06.578Z,101652.63
2023-09-07T21:30:09.942Z,101654.34
2023-09-07T21:34:11.956Z,101651.91
2023-09-07T21:38:13.926Z,101655.78
2023-09-07T21:42:15.898Z,101652.88
2023-09-07T21:46:17.893Z,101649.19
2023-09-07T21:50:19.949Z,101646.53
2023-09-07T21:54:21.873Z,101642.00
2023-09-07T21:58:23.794Z,101650.00
2023-09-07T22:02:26.085Z,101649.59
2023-09-07T22:06:28.842Z,101640.22
2023-09-07T22:10:30.822Z,101646.94
2023-09-07T22:14:34.324Z,101638.19
2023-09-07T22:18:39.312Z,101634.84
2023-09-07T22:22:41.269Z,101627.75
2023-09-07T22:26:43.252Z,101626.53
2023-09-07T22:30:45.358Z,101624.88
2023-09-07T22:34:47.305Z,101622.78
2023-09-07T22:38:49.214Z,101615.31
2023-09-07T22:42:51.180Z,101619.53
2023-09-07T22:46:53.049Z,101623.72
2023-09-07T22:50:55.021Z,101613.28
2023-09-07T22:55:11.088Z,101615.63
2023-09-07T22:59:13.287Z,101621.75
2023-09-07T23:03:16.124Z,101615.06
2023-09-07T23:07:18.035Z,101610.06
2023-09-07T23:11:19.926Z,101611.81
2023-09-07T23:15:22.031Z,101602.19
2023-09-07T23:19:23.941Z,101600.97
2023-09-07T23:23:28.587Z,101603.75
2023-09-07T23:27:31.104Z,101598.53
2023-09-07T23:31:33.099Z,101601.50
2023-09-07T23:35:35.150Z,101597.56
2023-09-07T23:39:37.571Z,101602.59
2023-09-07T23:43:39.694Z,101600.56
2023-09-07T23:47:41.882Z,101599.31
2023-09-07T23:51:43.881Z,101596.22
2023-09-07T23:55:47.681Z,101593.94
2023-09-07T23:59:52.335Z,101597.06
